Time;durP1;ratioP1;P1;durP2;ratioP2;P2;SDS_P1;SDS_P2;PMS_P1;PMS_P2;Temp;Humidity;BMP_temperature;BMP_pressure;BME280_temperature;BME280_humidity;BME280_pressure;Samples;Min_cycle;Max_cycle;Signal;HPM_P1;HPM_P2
2021/08/12 00:00:56;;;;;;;6.77;5.40;;;;;;;;;;5016510;28;20202;-78
2021/08/12 00:03:21;;;;;;;6.90;5.53;;;;;;;;;;5015282;28;20667;-76
2021/08/12 00:08:16;;;;;;;6.90;5.70;;;;;;;;;;4986409;28;20234;-56
2021/08/12 00:10:41;;;;;;;8.03;5.43;;;;;;;;;;4970829;28;20184;-56
2021/08/12 00:13:06;;;;;;;5.90;5.20;;;;;;;;;;4971505;28;20212;-56
2021/08/12 00:15:31;;;;;;;7.67;6.03;;;;;;;;;;4964053;28;20176;-57
2021/08/12 00:17:56;;;;;;;7.90;6.37;;;;;;;;;;4974985;28;20852;-56
2021/08/12 00:20:22;;;;;;;9.73;5.50;;;;;;;;;;4974410;28;20234;-56
2021/08/12 00:22:47;;;;;;;6.87;6.17;;;;;;;;;;4994367;28;20589;-56
2021/08/12 00:25:12;;;;;;;6.87;5.67;;;;;;;;;;4966871;28;20196;-55
2021/08/12 00:27:37;;;;;;;17.40;5.53;;;;;;;;;;4985096;28;20172;-56
2021/08/12 00:30:03;;;;;;;6.00;5.40;;;;;;;;;;4985500;28;20184;-56
2021/08/12 00:32:28;;;;;;;7.50;5.57;;;;;;;;;;4970140;28;20862;-55
2021/08/12 00:34:54;;;;;;;10.30;5.57;;;;;;;;;;4986111;28;20208;-56
2021/08/12 00:37:19;;;;;;;7.93;5.13;;;;;;;;;;4965685;28;20180;-56
2021/08/12 00:39:45;;;;;;;9.37;5.90;;;;;;;;;;4993042;28;20204;-56
2021/08/12 00:42:10;;;;;;;5.23;4.73;;;;;;;;;;4967949;28;20189;-56
2021/08/12 00:44:35;;;;;;;8.47;6.23;;;;;;;;;;4983707;28;20648;-55
2021/08/12 00:47:00;;;;;;;7.67;5.90;;;;;;;;;;4982859;28;20575;-55
2021/08/12 00:49:25;;;;;;;10.57;6.47;;;;;;;;;;4973734;28;20805;-56
2021/08/12 00:51:51;;;;;;;7.32;5.43;;;;;;;;;;4973360;28;20266;-56
2021/08/12 00:54:16;;;;;;;6.43;5.63;;;;;;;;;;4982081;28;20663;-56
2021/08/12 00:56:42;;;;;;;6.55;5.55;;;;;;;;;;4982988;28;20188;-56
2021/08/12 00:59:07;;;;;;;6.07;5.47;;;;;;;;;;4984656;28;20204;-56
2021/08/12 01:01:32;;;;;;;7.47;5.70;;;;;;;;;;4983052;28;20191;-55
2021/08/12 01:03:59;;;;;;;6.57;5.60;;;;;;;;;;4983353;28;20760;-56
2021/08/12 01:06:29;;;;;;;6.10;4.80;;;;;;;;;;4983067;28;20189;-56
2021/08/12 01:09:06;;;;;;;6.37;5.03;;;;;;;;;;4993036;28;20189;-56
2021/08/12 01:11:43;;;;;;;8.40;5.90;;;;;;;;;;4969788;28;20635;-56
2021/08/12 01:14:26;;;;;;;6.50;5.67;;;;;;;;;;4970529;28;20184;-54
2021/08/12 01:16:56;;;;;;;11.77;5.70;;;;;;;;;;4983710;28;20184;-55
2021/08/12 01:19:29;;;;;;;8.97;6.20;;;;;;;;;;4980161;28;20204;-56
2021/08/12 01:21:54;;;;;;;8.40;6.00;;;;;;;;;;4982244;28;20554;-55
2021/08/12 01:24:20;;;;;;;7.00;5.73;;;;;;;;;;4983448;28;20614;-56
2021/08/12 01:26:47;;;;;;;8.77;5.97;;;;;;;;;;4983604;28;20927;-55
2021/08/12 01:29:15;;;;;;;11.87;6.17;;;;;;;;;;4973565;28;20271;-57
2021/08/12 01:31:46;;;;;;;8.73;6.50;;;;;;;;;;4974440;28;20246;-56
2021/08/12 01:34:16;;;;;;;7.83;6.30;;;;;;;;;;4969418;28;20198;-56
2021/08/12 01:36:42;;;;;;;7.93;6.50;;;;;;;;;;4970382;28;20296;-55
2021/08/12 01:39:11;;;;;;;7.00;5.87;;;;;;;;;;4987756;28;20215;-56
2021/08/12 01:41:37;;;;;;;6.40;5.70;;;;;;;;;;4986058;28;20208;-55
2021/08/12 01:44:02;;;;;;;7.07;5.93;;;;;;;;;;4984768;28;20184;-56
2021/08/12 01:46:27;;;;;;;7.27;5.80;;;;;;;;;;4970059;28;20181;-55
2021/08/12 01:48:53;;;;;;;6.87;6.03;;;;;;;;;;4974139;28;20192;-55
2021/08/12 01:51:19;;;;;;;8.33;5.47;;;;;;;;;;4979441;28;20216;-55
2021/08/12 01:53:45;;;;;;;7.75;5.65;;;;;;;;;;4985338;28;20192;-56
2021/08/12 01:56:14;;;;;;;8.40;5.87;;;;;;;;;;4987258;28;20172;-54
2021/08/12 01:58:39;;;;;;;10.50;6.00;;;;;;;;;;4983287;28;20212;-55
2021/08/12 02:01:05;;;;;;;6.30;5.70;;;;;;;;;;4981655;28;20700;-56
2021/08/12 02:03:31;;;;;;;6.33;5.60;;;;;;;;;;4985826;28;20326;-56
2021/08/12 02:05:57;;;;;;;7.05;5.10;;;;;;;;;;4985546;28;20203;-57
2021/08/12 02:08:23;;;;;;;6.07;4.30;;;;;;;;;;4987626;28;20198;-55
2021/08/12 02:10:49;;;;;;;6.35;4.80;;;;;;;;;;4992349;28;20192;-55
2021/08/12 02:13:14;;;;;;;5.40;4.70;;;;;;;;;;4987516;28;20630;-56
2021/08/12 02:15:39;;;;;;;5.50;5.00;;;;;;;;;;4968392;28;20184;-55
2021/08/12 02:18:05;;;;;;;7.20;4.70;;;;;;;;;;4986980;28;20271;-56
2021/08/12 02:20:30;;;;;;;6.27;4.60;;;;;;;;;;4982546;28;20189;-55
2021/08/12 02:22:59;;;;;;;5.32;4.82;;;;;;;;;;4971464;28;20696;-55
2021/08/12 02:25:33;;;;;;;7.55;5.47;;;;;;;;;;4977812;28;20179;-57
2021/08/12 02:28:02;;;;;;;7.17;5.10;;;;;;;;;;4976711;28;20199;-57
2021/08/12 02:30:27;;;;;;;6.37;5.23;;;;;;;;;;4984810;28;20192;-56
2021/08/12 02:32:53;;;;;;;7.85;5.40;;;;;;;;;;4973271;28;20208;-56
2021/08/12 02:35:19;;;;;;;7.72;6.25;;;;;;;;;;4985796;28;20231;-55
2021/08/12 02:37:46;;;;;;;10.23;7.67;;;;;;;;;;4965094;28;20615;-56
2021/08/12 02:40:11;;;;;;;9.75;7.22;;;;;;;;;;4989536;28;20616;-55
2021/08/12 02:42:39;;;;;;;8.30;7.20;;;;;;;;;;4988643;28;20203;-56
2021/08/12 02:45:05;;;;;;;8.00;7.20;;;;;;;;;;4973072;28;20614;-56
2021/08/12 02:47:31;;;;;;;9.83;8.00;;;;;;;;;;4974630;28;20197;-55
2021/08/12 02:49:56;;;;;;;11.33;7.60;;;;;;;;;;4979721;28;20176;-56
2021/08/12 02:52:22;;;;;;;12.47;7.83;;;;;;;;;;4969848;28;20204;-56
2021/08/12 02:54:48;;;;;;;11.67;7.77;;;;;;;;;;4997473;28;20179;-56
2021/08/12 02:57:14;;;;;;;11.03;7.50;;;;;;;;;;4985578;28;20199;-56
2021/08/12 02:59:42;;;;;;;10.67;8.07;;;;;;;;;;4988378;28;20216;-56
2021/08/12 03:02:08;;;;;;;8.27;7.33;;;;;;;;;;4988385;28;20661;-56
2021/08/12 03:04:33;;;;;;;9.80;7.93;;;;;;;;;;4972580;28;20180;-55
2021/08/12 03:06:59;;;;;;;10.77;7.50;;;;;;;;;;4982953;28;20726;-55
2021/08/12 03:09:25;;;;;;;9.03;7.47;;;;;;;;;;4984613;28;20189;-56
2021/08/12 03:11:51;;;;;;;7.37;6.53;;;;;;;;;;4992313;28;20208;-56
2021/08/12 03:14:16;;;;;;;10.33;8.27;;;;;;;;;;4968697;28;20188;-56
2021/08/12 03:16:42;;;;;;;8.87;7.87;;;;;;;;;;4958598;28;20188;-56
2021/08/12 03:19:07;;;;;;;10.83;8.40;;;;;;;;;;4979213;28;20218;-55
2021/08/12 03:21:33;;;;;;;13.90;8.60;;;;;;;;;;4982598;28;20371;-55
2021/08/12 03:24:01;;;;;;;8.80;7.63;;;;;;;;;;4981540;28;20234;-56
2021/08/12 03:26:26;;;;;;;10.20;8.00;;;;;;;;;;4985309;28;20199;-56
2021/08/12 03:28:52;;;;;;;11.23;8.80;;;;;;;;;;4986257;28;20592;-56
2021/08/12 03:31:17;;;;;;;9.33;7.83;;;;;;;;;;4988275;28;20583;-55
2021/08/12 03:33:42;;;;;;;11.77;8.73;;;;;;;;;;4974968;28;20268;-56
2021/08/12 03:36:07;;;;;;;11.40;8.97;;;;;;;;;;4987038;28;20184;-55
2021/08/12 03:38:34;;;;;;;15.67;9.03;;;;;;;;;;4969031;28;20680;-56
2021/08/12 03:40:59;;;;;;;13.13;10.07;;;;;;;;;;4997972;28;20648;-56
2021/08/12 03:43:24;;;;;;;14.50;10.40;;;;;;;;;;4983461;28;20271;-56
2021/08/12 03:45:50;;;;;;;10.50;9.40;;;;;;;;;;4986168;28;20184;-56
2021/08/12 03:48:15;;;;;;;12.57;9.40;;;;;;;;;;4979355;28;20720;-55
2021/08/12 03:50:40;;;;;;;10.20;9.10;;;;;;;;;;4975714;28;20192;-55
2021/08/12 03:53:05;;;;;;;11.40;9.20;;;;;;;;;;4976671;28;20204;-56
2021/08/12 03:55:30;;;;;;;10.67;8.57;;;;;;;;;;4984284;28;20207;-56
2021/08/12 03:57:55;;;;;;;15.17;9.10;;;;;;;;;;4983857;28;20184;-56
2021/08/12 04:00:21;;;;;;;10.80;8.23;;;;;;;;;;4986299;28;20259;-56
2021/08/12 04:02:46;;;;;;;12.50;9.03;;;;;;;;;;4986823;28;20199;-54
2021/08/12 04:05:11;;;;;;;10.70;8.70;;;;;;;;;;4967095;28;20635;-56
2021/08/12 04:07:36;;;;;;;8.87;7.80;;;;;;;;;;4977389;28;20192;-56
2021/08/12 04:10:02;;;;;;;10.33;8.00;;;;;;;;;;4981857;28;20188;-57
2021/08/12 04:12:27;;;;;;;10.00;7.93;;;;;;;;;;4997760;28;20234;-55
2021/08/12 04:14:53;;;;;;;13.37;8.20;;;;;;;;;;4979729;28;20216;-55
2021/08/12 04:17:18;;;;;;;11.97;8.47;;;;;;;;;;4963475;28;20554;-56
2021/08/12 04:19:43;;;;;;;9.13;8.10;;;;;;;;;;4974906;28;20236;-56
2021/08/12 04:22:08;;;;;;;14.50;9.03;;;;;;;;;;4971166;28;20233;-56
2021/08/12 04:24:34;;;;;;;8.93;8.00;;;;;;;;;;4990480;28;20179;-55
2021/08/12 04:26:59;;;;;;;14.67;8.40;;;;;;;;;;4988136;28;20184;-56
2021/08/12 04:29:24;;;;;;;14.87;8.20;;;;;;;;;;4980200;28;20866;-56
2021/08/12 04:31:49;;;;;;;10.60;8.70;;;;;;;;;;4968187;28;20219;-57
2021/08/12 04:34:14;;;;;;;11.30;8.23;;;;;;;;;;4974866;28;20193;-56
2021/08/12 04:36:40;;;;;;;10.50;8.23;;;;;;;;;;4980992;28;20181;-56
2021/08/12 04:39:05;;;;;;;11.57;8.30;;;;;;;;;;4984983;28;20204;-56
2021/08/12 04:41:30;;;;;;;12.10;8.77;;;;;;;;;;4999559;28;20194;-55
2021/08/12 04:43:55;;;;;;;12.02;9.07;;;;;;;;;;4984354;28;20179;-56
2021/08/12 04:46:20;;;;;;;9.70;8.65;;;;;;;;;;4981050;28;20282;-56
2021/08/12 04:48:46;;;;;;;9.87;8.43;;;;;;;;;;4984695;28;20323;-56
2021/08/12 04:51:11;;;;;;;13.23;9.20;;;;;;;;;;4983037;28;20210;-56
2021/08/12 04:53:36;;;;;;;10.03;8.93;;;;;;;;;;4963194;28;20555;-58
2021/08/12 04:56:02;;;;;;;9.80;8.17;;;;;;;;;;4993085;28;20206;-57
2021/08/12 04:58:27;;;;;;;10.23;8.27;;;;;;;;;;4987802;28;20200;-55
2021/08/12 05:00:52;;;;;;;13.97;9.73;;;;;;;;;;4971661;28;20177;-57
2021/08/12 05:03:17;;;;;;;12.10;8.80;;;;;;;;;;4983176;28;20195;-56
2021/08/12 05:05:42;;;;;;;15.23;8.60;;;;;;;;;;4968763;28;20179;-55
2021/08/12 05:08:08;;;;;;;11.60;8.33;;;;;;;;;;4980565;28;20243;-56
2021/08/12 05:10:33;;;;;;;10.97;8.47;;;;;;;;;;4991470;28;20572;-56
2021/08/12 05:12:58;;;;;;;10.03;8.40;;;;;;;;;;4985684;28;20243;-55
2021/08/12 05:15:23;;;;;;;8.67;7.80;;;;;;;;;;4981522;28;20192;-56
2021/08/12 05:17:48;;;;;;;9.50;8.20;;;;;;;;;;4971266;28;20195;-57
2021/08/12 05:20:14;;;;;;;14.48;8.95;;;;;;;;;;4977126;28;20225;-56
2021/08/12 05:22:39;;;;;;;10.30;8.98;;;;;;;;;;4956580;28;20204;-56
2021/08/12 05:25:05;;;;;;;12.43;8.57;;;;;;;;;;4975034;28;20173;-56
2021/08/12 05:27:30;;;;;;;11.30;8.03;;;;;;;;;;4989706;28;20192;-57
2021/08/12 05:29:55;;;;;;;9.75;8.75;;;;;;;;;;4984069;28;20241;-55
2021/08/12 05:32:20;;;;;;;11.20;8.60;;;;;;;;;;4964426;28;20217;-55
2021/08/12 05:34:45;;;;;;;9.57;8.57;;;;;;;;;;4980913;28;20652;-55
2021/08/12 05:37:11;;;;;;;10.67;8.87;;;;;;;;;;4987310;28;20215;-56
2021/08/12 05:39:39;;;;;;;12.73;8.55;;;;;;;;;;4981988;28;20464;-56
2021/08/12 05:42:04;;;;;;;15.15;9.07;;;;;;;;;;4986782;28;20207;-56
2021/08/12 05:44:29;;;;;;;14.18;9.40;;;;;;;;;;4963746;28;20181;-56
2021/08/12 05:46:54;;;;;;;9.75;8.70;;;;;;;;;;4985337;28;20791;-57
2021/08/12 05:49:24;;;;;;;9.00;8.15;;;;;;;;;;4982112;28;20188;-56
2021/08/12 05:51:50;;;;;;;13.80;8.48;;;;;;;;;;4989710;28;20216;-56
2021/08/12 05:54:15;;;;;;;12.93;8.82;;;;;;;;;;4994051;28;20334;-57
2021/08/12 05:56:40;;;;;;;9.25;8.20;;;;;;;;;;4978617;28;20565;-55
2021/08/12 05:59:05;;;;;;;9.82;7.40;;;;;;;;;;4975033;28;20201;-56
2021/08/12 06:01:31;;;;;;;9.82;7.32;;;;;;;;;;4978560;28;20217;-55
2021/08/12 06:03:56;;;;;;;8.13;7.05;;;;;;;;;;4975777;28;20264;-55
2021/08/12 06:06:21;;;;;;;9.63;7.50;;;;;;;;;;4974659;28;20954;-54
2021/08/12 06:08:46;;;;;;;9.68;7.45;;;;;;;;;;4983840;28;20348;-55
2021/08/12 06:11:11;;;;;;;9.18;7.85;;;;;;;;;;4976320;28;20631;-53
2021/08/12 06:13:37;;;;;;;11.70;7.70;;;;;;;;;;4994888;28;20180;-53
2021/08/12 06:16:02;;;;;;;10.27;8.10;;;;;;;;;;4980489;28;20198;-53
2021/08/12 06:18:27;;;;;;;10.88;8.30;;;;;;;;;;4983183;28;20205;-54
2021/08/12 06:20:52;;;;;;;10.53;8.70;;;;;;;;;;4987032;28;20211;-55
2021/08/12 06:23:17;;;;;;;9.52;8.63;;;;;;;;;;4986632;28;20509;-55
2021/08/12 06:25:43;;;;;;;12.05;8.80;;;;;;;;;;4985524;28;20180;-57
2021/08/12 06:28:08;;;;;;;15.20;9.20;;;;;;;;;;4989109;28;20179;-55
2021/08/12 06:30:34;;;;;;;8.95;6.47;;;;;;;;;;4993899;28;20182;-55
2021/08/12 06:33:00;;;;;;;7.32;6.63;;;;;;;;;;4980854;28;20200;-56
2021/08/12 06:35:26;;;;;;;10.70;6.57;;;;;;;;;;4978778;28;20188;-55
2021/08/12 06:37:52;;;;;;;8.52;7.28;;;;;;;;;;4977667;28;20184;-55
2021/08/12 06:40:19;;;;;;;7.35;6.60;;;;;;;;;;4973786;28;20650;-54
2021/08/12 06:42:44;;;;;;;8.57;7.68;;;;;;;;;;4978361;28;20271;-54
2021/08/12 06:45:10;;;;;;;9.50;6.55;;;;;;;;;;4975472;28;20173;-54
2021/08/12 06:47:36;;;;;;;7.22;6.35;;;;;;;;;;4978190;28;20676;-54
2021/08/12 06:50:02;;;;;;;7.65;6.00;;;;;;;;;;4974745;28;20209;-54
2021/08/12 06:52:27;;;;;;;5.28;4.78;;;;;;;;;;4977520;28;20224;-56
2021/08/12 06:54:52;;;;;;;6.53;5.03;;;;;;;;;;4984869;28;20327;-54
2021/08/12 06:57:17;;;;;;;5.40;4.68;;;;;;;;;;4976419;28;20192;-55
2021/08/12 06:59:43;;;;;;;5.10;4.00;;;;;;;;;;4986311;28;20238;-56
2021/08/12 07:02:08;;;;;;;4.85;4.03;;;;;;;;;;4978540;28;20289;-56
2021/08/12 07:04:33;;;;;;;6.00;4.40;;;;;;;;;;4983790;28;20640;-54
2021/08/12 07:06:58;;;;;;;5.30;4.68;;;;;;;;;;4990152;28;20199;-56
2021/08/12 07:09:23;;;;;;;5.83;4.97;;;;;;;;;;4970921;28;20180;-56
2021/08/12 07:11:51;;;;;;;8.13;4.97;;;;;;;;;;4980391;28;21169;-56
2021/08/12 07:14:17;;;;;;;6.22;4.97;;;;;;;;;;4998345;28;20482;-56
2021/08/12 07:16:42;;;;;;;5.65;4.60;;;;;;;;;;4976624;28;20188;-56
2021/08/12 07:19:07;;;;;;;5.87;5.27;;;;;;;;;;4979669;28;20578;-55
2021/08/12 07:21:32;;;;;;;6.13;5.00;;;;;;;;;;4984431;28;20501;-56
2021/08/12 07:23:58;;;;;;;6.97;4.82;;;;;;;;;;4988474;28;20482;-55
2021/08/12 07:26:23;;;;;;;5.40;4.80;;;;;;;;;;4985982;28;20176;-56
2021/08/12 07:28:49;;;;;;;6.13;5.07;;;;;;;;;;4986922;28;21360;-56
2021/08/12 07:31:15;;;;;;;6.87;4.60;;;;;;;;;;4979455;28;20546;-56
2021/08/12 07:33:40;;;;;;;5.30;4.22;;;;;;;;;;4974997;28;20177;-55
2021/08/12 07:36:06;;;;;;;5.55;4.90;;;;;;;;;;4980575;28;20191;-56
2021/08/12 07:38:31;;;;;;;7.93;5.25;;;;;;;;;;4977255;28;20911;-56
2021/08/12 07:40:57;;;;;;;4.88;4.47;;;;;;;;;;4975536;28;20268;-56
2021/08/12 07:43:22;;;;;;;7.55;4.90;;;;;;;;;;4977778;28;20188;-56
2021/08/12 07:45:48;;;;;;;5.22;4.82;;;;;;;;;;4975410;28;20871;-56
2021/08/12 07:48:14;;;;;;;5.57;5.00;;;;;;;;;;4975028;28;20196;-55
2021/08/12 07:50:39;;;;;;;6.07;5.05;;;;;;;;;;4977038;28;20265;-55
2021/08/12 07:53:04;;;;;;;5.17;4.33;;;;;;;;;;4976889;28;20299;-56
2021/08/12 07:55:30;;;;;;;11.47;4.80;;;;;;;;;;4973636;28;20947;-56
2021/08/12 07:57:55;;;;;;;5.57;5.00;;;;;;;;;;4981856;28;20414;-56
2021/08/12 08:00:20;;;;;;;7.67;4.83;;;;;;;;;;4967605;28;21201;-56
2021/08/12 08:02:46;;;;;;;7.57;4.90;;;;;;;;;;4974183;28;20478;-56
2021/08/12 08:05:17;;;;;;;6.22;5.03;;;;;;;;;;4971355;28;20560;-56
2021/08/12 08:07:43;;;;;;;6.80;4.85;;;;;;;;;;4990940;22;20321;-57
2021/08/12 08:10:08;;;;;;;5.90;5.07;;;;;;;;;;5031643;28;20269;-56
2021/08/12 08:12:34;;;;;;;6.45;5.80;;;;;;;;;;5033946;28;20183;-56
2021/08/12 08:14:59;;;;;;;5.60;5.10;;;;;;;;;;5031421;28;20261;-57
2021/08/12 08:17:24;;;;;;;5.17;4.07;;;;;;;;;;5025782;28;20198;-56
2021/08/12 08:19:49;;;;;;;5.40;4.90;;;;;;;;;;5010416;28;20199;-56
2021/08/12 08:22:14;;;;;;;6.00;5.10;;;;;;;;;;5006457;28;20914;-56
2021/08/12 08:24:39;;;;;;;6.30;4.85;;;;;;;;;;5002175;28;20415;-57
2021/08/12 08:27:05;;;;;;;6.43;4.90;;;;;;;;;;5005197;28;20193;-56
2021/08/12 08:29:30;;;;;;;6.13;5.03;;;;;;;;;;5020578;28;20467;-56
2021/08/12 08:31:55;;;;;;;8.27;5.00;;;;;;;;;;5001112;28;20191;-56
2021/08/12 08:34:20;;;;;;;5.33;4.83;;;;;;;;;;4994497;28;20850;-58
2021/08/12 08:36:45;;;;;;;5.37;4.87;;;;;;;;;;5004030;28;20514;-58
2021/08/12 08:39:11;;;;;;;5.50;4.70;;;;;;;;;;5008172;28;20233;-58
2021/08/12 08:41:36;;;;;;;5.50;5.00;;;;;;;;;;5003627;28;20524;-57
2021/08/12 08:44:02;;;;;;;5.82;5.22;;;;;;;;;;5015874;28;20184;-57
2021/08/12 08:46:27;;;;;;;5.88;5.25;;;;;;;;;;4999636;28;20314;-57
2021/08/12 08:48:55;;;;;;;5.40;4.90;;;;;;;;;;5002198;28;20207;-56
2021/08/12 08:51:21;;;;;;;6.18;5.18;;;;;;;;;;5004645;28;20218;-55
2021/08/12 08:53:46;;;;;;;5.05;4.55;;;;;;;;;;5009916;28;20214;-55
2021/08/12 08:56:12;;;;;;;7.00;5.05;;;;;;;;;;5006511;28;20623;-55
2021/08/12 08:58:38;;;;;;;7.15;5.30;;;;;;;;;;5007455;28;20289;-56
2021/08/12 09:01:03;;;;;;;4.88;4.47;;;;;;;;;;5005689;28;20192;-56
2021/08/12 09:03:28;;;;;;;5.13;4.57;;;;;;;;;;5006653;28;20180;-56
2021/08/12 09:05:54;;;;;;;5.43;4.90;;;;;;;;;;4999550;28;20180;-56
2021/08/12 09:08:19;;;;;;;4.82;4.43;;;;;;;;;;4999088;28;20246;-55
2021/08/12 09:10:44;;;;;;;4.68;4.10;;;;;;;;;;4988911;28;20207;-58
2021/08/12 09:13:10;;;;;;;5.40;4.80;;;;;;;;;;5005081;28;20617;-56
2021/08/12 09:15:42;;;;;;;5.60;4.57;;;;;;;;;;5008083;28;20925;-56
2021/08/12 09:18:20;;;;;;;4.60;4.20;;;;;;;;;;5006087;28;20210;-56
2021/08/12 09:20:48;;;;;;;4.93;4.20;;;;;;;;;;4999339;28;20187;-56
2021/08/12 09:23:13;;;;;;;8.93;4.20;;;;;;;;;;5019056;28;20186;-55
2021/08/12 09:25:44;;;;;;;4.30;3.90;;;;;;;;;;5002151;28;20254;-55
2021/08/12 09:28:10;;;;;;;5.18;4.45;;;;;;;;;;5006978;28;20485;-55
2021/08/12 09:30:35;;;;;;;5.07;4.20;;;;;;;;;;5008918;28;20206;-56
2021/08/12 09:33:00;;;;;;;4.63;4.23;;;;;;;;;;5005630;28;20675;-55
2021/08/12 09:35:26;;;;;;;8.60;4.00;;;;;;;;;;4998746;28;20455;-56
2021/08/12 09:37:52;;;;;;;4.65;3.67;;;;;;;;;;5001550;28;20207;-55
2021/08/12 09:40:22;;;;;;;4.53;3.90;;;;;;;;;;5004440;28;20277;-55
2021/08/12 09:43:00;;;;;;;5.07;4.57;;;;;;;;;;5002148;28;20187;-56
2021/08/12 09:45:25;;;;;;;5.32;3.90;;;;;;;;;;5004727;28;20183;-55
2021/08/12 09:47:51;;;;;;;4.28;3.88;;;;;;;;;;5008851;28;20206;-58
2021/08/12 09:50:42;;;;;;;4.30;3.90;;;;;;;;;;4993872;28;20826;-56
2021/08/12 09:53:08;;;;;;;5.30;4.22;;;;;;;;;;4994979;28;20195;-56
2021/08/12 09:55:38;;;;;;;6.88;4.00;;;;;;;;;;4993733;28;20201;-56
2021/08/12 09:58:07;;;;;;;5.03;4.30;;;;;;;;;;4996942;28;20200;-56
2021/08/12 10:00:35;;;;;;;4.25;3.85;;;;;;;;;;4995137;28;20278;-56
2021/08/12 10:03:17;;;;;;;4.82;4.30;;;;;;;;;;4992891;28;20180;-57
2021/08/12 10:05:42;;;;;;;5.70;4.25;;;;;;;;;;4997346;28;20191;-57
2021/08/12 10:08:08;;;;;;;4.30;3.90;;;;;;;;;;4992943;28;20710;-57
2021/08/12 10:10:33;;;;;;;9.50;4.30;;;;;;;;;;5011500;28;20203;-59
2021/08/12 10:13:03;;;;;;;6.85;4.38;;;;;;;;;;4995766;28;20427;-57
2021/08/12 10:15:32;;;;;;;4.53;4.10;;;;;;;;;;5003196;28;20215;-58
2021/08/12 10:17:58;;;;;;;3.95;3.65;;;;;;;;;;5002339;28;20203;-57
2021/08/12 10:20:28;;;;;;;4.22;3.85;;;;;;;;;;4995867;28;20215;-56
2021/08/12 10:22:54;;;;;;;6.55;4.30;;;;;;;;;;4997314;28;20577;-56
2021/08/12 10:25:20;;;;;;;5.13;4.35;;;;;;;;;;4997119;28;20257;-56
2021/08/12 10:27:47;;;;;;;4.45;4.05;;;;;;;;;;5001470;28;20258;-56
2021/08/12 10:30:13;;;;;;;4.30;3.90;;;;;;;;;;5000434;28;20263;-55
2021/08/12 10:32:40;;;;;;;4.63;4.22;;;;;;;;;;4999669;28;20263;-56
2021/08/12 10:35:06;;;;;;;6.38;4.47;;;;;;;;;;4997247;28;20817;-57
2021/08/12 10:37:31;;;;;;;4.85;4.20;;;;;;;;;;5009916;28;20175;-57
2021/08/12 10:39:57;;;;;;;4.43;4.03;;;;;;;;;;5006143;28;20205;-57
2021/08/12 10:42:23;;;;;;;4.40;4.00;;;;;;;;;;5002127;28;20187;-57
2021/08/12 10:44:48;;;;;;;5.25;4.30;;;;;;;;;;5017917;28;20620;-56
2021/08/12 10:47:37;;;;;;;4.22;3.83;;;;;;;;;;5001021;28;20176;-56
2021/08/12 10:50:21;;;;;;;4.80;4.32;;;;;;;;;;4993521;28;20258;-56
2021/08/12 10:53:02;;;;;;;4.40;3.70;;;;;;;;;;5001408;28;20183;-58
2021/08/12 10:55:27;;;;;;;4.82;4.18;;;;;;;;;;4992579;28;20246;-56
2021/08/12 10:58:12;;;;;;;4.30;3.90;;;;;;;;;;5017541;28;20207;-56
2021/08/12 11:00:50;;;;;;;5.60;4.05;;;;;;;;;;5011172;28;20295;-56
2021/08/12 11:03:34;;;;;;;4.82;3.85;;;;;;;;;;5000117;28;20237;-58
2021/08/12 11:06:06;;;;;;;3.45;3.13;;;;;;;;;;4996499;28;20270;-58
2021/08/12 11:08:57;;;;;;;5.10;3.50;;;;;;;;;;5007261;28;20215;-56
2021/08/12 11:11:25;;;;;;;6.25;3.65;;;;;;;;;;5004079;28;20187;-60
2021/08/12 11:13:51;;;;;;;6.07;4.18;;;;;;;;;;5003547;28;20220;-59
2021/08/12 11:16:17;;;;;;;4.15;3.75;;;;;;;;;;5010358;28;20203;-56
2021/08/12 11:18:47;;;;;;;5.53;3.88;;;;;;;;;;4995252;28;20637;-57
2021/08/12 11:21:33;;;;;;;4.53;4.05;;;;;;;;;;5000170;28;20198;-57
2021/08/12 11:24:08;;;;;;;3.50;3.20;;;;;;;;;;4998765;28;20200;-55
2021/08/12 11:26:40;;;;;;;6.82;3.67;;;;;;;;;;5004983;28;20186;-55
2021/08/12 11:29:05;;;;;;;5.13;3.70;;;;;;;;;;5012773;28;20250;-57
2021/08/12 11:31:30;;;;;;;4.10;3.60;;;;;;;;;;5013212;28;20604;-56
2021/08/12 11:34:01;;;;;;;4.03;3.37;;;;;;;;;;5010373;28;20198;-57
2021/08/12 11:36:28;;;;;;;6.68;3.50;;;;;;;;;;5009428;28;20418;-62
2021/08/12 11:38:58;;;;;;;3.97;3.28;;;;;;;;;;4999567;28;20210;-56
2021/08/12 11:41:24;;;;;;;3.72;3.35;;;;;;;;;;5003663;28;20211;-57
2021/08/12 11:43:50;;;;;;;3.50;3.08;;;;;;;;;;5014882;28;20183;-58
2021/08/12 11:46:15;;;;;;;4.68;3.53;;;;;;;;;;5026374;28;20186;-57
2021/08/12 11:48:41;;;;;;;3.70;3.35;;;;;;;;;;5012680;28;20215;-57
2021/08/12 11:51:07;;;;;;;5.10;3.35;;;;;;;;;;5010335;28;20193;-56
2021/08/12 11:53:42;;;;;;;4.00;3.03;;;;;;;;;;5014302;28;20203;-56
2021/08/12 11:56:22;;;;;;;4.40;3.42;;;;;;;;;;5008478;28;20700;-56
2021/08/12 11:58:52;;;;;;;4.10;3.22;;;;;;;;;;5003608;28;20207;-58
2021/08/12 12:01:19;;;;;;;5.85;3.42;;;;;;;;;;5004751;28;20175;-58
2021/08/12 12:03:46;;;;;;;5.95;3.85;;;;;;;;;;4996778;28;20172;-59
2021/08/12 12:06:27;;;;;;;3.88;3.47;;;;;;;;;;5010579;28;20270;-58
2021/08/12 12:08:52;;;;;;;4.22;3.53;;;;;;;;;;5009757;28;20211;-57
2021/08/12 12:11:17;;;;;;;4.63;3.53;;;;;;;;;;5015708;28;20183;-57
2021/08/12 12:13:42;;;;;;;3.42;3.13;;;;;;;;;;5002623;28;20454;-57
2021/08/12 12:16:11;;;;;;;4.87;3.30;;;;;;;;;;5005389;28;20192;-56
2021/08/12 12:18:36;;;;;;;4.30;3.85;;;;;;;;;;4996788;28;20537;-56
2021/08/12 12:21:05;;;;;;;4.18;3.42;;;;;;;;;;4998809;28;20271;-57
2021/08/12 12:23:30;;;;;;;8.95;4.35;;;;;;;;;;5005901;28;20184;-57
2021/08/12 12:25:55;;;;;;;4.30;3.45;;;;;;;;;;5006691;28;20553;-56
2021/08/12 12:28:20;;;;;;;4.03;3.33;;;;;;;;;;5004887;28;20277;-56
2021/08/12 12:30:46;;;;;;;8.38;3.40;;;;;;;;;;5020384;28;20412;-56
2021/08/12 12:33:13;;;;;;;4.22;3.47;;;;;;;;;;5004612;28;20183;-56
2021/08/12 12:35:48;;;;;;;4.47;3.38;;;;;;;;;;4997798;28;20176;-55
2021/08/12 12:38:17;;;;;;;5.15;3.65;;;;;;;;;;5011029;28;20289;-55
2021/08/12 12:40:42;;;;;;;3.88;3.30;;;;;;;;;;5000346;28;20176;-55
2021/08/12 12:43:07;;;;;;;3.85;3.30;;;;;;;;;;5004138;28;20194;-55
2021/08/12 12:45:46;;;;;;;3.37;2.97;;;;;;;;;;5007011;28;20184;-54
2021/08/12 12:48:11;;;;;;;4.18;3.63;;;;;;;;;;5006145;28;20449;-56
2021/08/12 12:50:49;;;;;;;3.88;3.13;;;;;;;;;;5004984;28;20671;-56
2021/08/12 12:53:27;;;;;;;5.38;3.90;;;;;;;;;;5006063;28;20254;-57
2021/08/12 12:55:52;;;;;;;5.82;3.60;;;;;;;;;;5005731;28;20262;-56
2021/08/12 12:58:18;;;;;;;3.60;3.10;;;;;;;;;;5014151;28;20274;-55
2021/08/12 13:00:43;;;;;;;5.25;3.20;;;;;;;;;;4994676;28;20207;-55
2021/08/12 13:03:09;;;;;;;4.80;3.75;;;;;;;;;;4998609;28;20294;-57
2021/08/12 13:05:50;;;;;;;5.53;3.60;;;;;;;;;;5000749;28;20243;-54
2021/08/12 13:08:16;;;;;;;3.95;3.35;;;;;;;;;;4992348;28;20235;-56
2021/08/12 13:10:41;;;;;;;3.95;3.55;;;;;;;;;;4998157;28;20547;-56
2021/08/12 13:13:06;;;;;;;3.67;3.33;;;;;;;;;;4994425;28;20192;-55
2021/08/12 13:15:31;;;;;;;3.40;3.10;;;;;;;;;;5005597;28;20602;-57
2021/08/12 13:17:58;;;;;;;4.15;3.50;;;;;;;;;;4998604;28;20230;-57
2021/08/12 13:20:23;;;;;;;3.85;3.45;;;;;;;;;;4996707;28;20214;-57
2021/08/12 13:22:49;;;;;;;7.88;3.42;;;;;;;;;;5006827;28;20215;-57
2021/08/12 13:25:15;;;;;;;5.05;3.70;;;;;;;;;;5006674;28;20229;-58
2021/08/12 13:27:42;;;;;;;4.95;3.25;;;;;;;;;;5009211;28;20209;-58
2021/08/12 13:30:07;;;;;;;4.43;3.60;;;;;;;;;;5001191;28;20654;-58
2021/08/12 13:32:32;;;;;;;4.18;3.35;;;;;;;;;;5005657;28;20192;-57
2021/08/12 13:34:59;;;;;;;4.03;3.60;;;;;;;;;;5006080;28;20250;-58
2021/08/12 13:37:24;;;;;;;3.67;3.35;;;;;;;;;;4998555;28;20186;-57
2021/08/12 13:39:49;;;;;;;4.13;3.73;;;;;;;;;;5000213;28;20211;-57
2021/08/12 13:42:14;;;;;;;6.80;3.45;;;;;;;;;;4998745;28;20419;-58
2021/08/12 13:44:39;;;;;;;4.60;3.50;;;;;;;;;;4998566;28;20266;-58
2021/08/12 13:47:06;;;;;;;4.40;3.42;;;;;;;;;;5013474;28;20417;-58
2021/08/12 13:49:31;;;;;;;3.53;3.00;;;;;;;;;;5005162;28;20280;-57
2021/08/12 13:51:57;;;;;;;4.82;3.75;;;;;;;;;;5003746;28;20601;-56
2021/08/12 13:54:23;;;;;;;3.50;3.08;;;;;;;;;;5003775;28;20183;-56
2021/08/12 13:56:48;;;;;;;3.67;3.35;;;;;;;;;;4994941;28;20182;-56
2021/08/12 13:59:13;;;;;;;4.15;3.50;;;;;;;;;;5009132;28;20714;-56
2021/08/12 14:01:39;;;;;;;3.70;3.40;;;;;;;;;;5007570;28;20265;-56
2021/08/12 14:04:05;;;;;;;3.95;3.55;;;;;;;;;;5002566;28;20826;-55
2021/08/12 14:06:30;;;;;;;4.25;3.85;;;;;;;;;;5003383;28;20172;-56
2021/08/12 14:08:55;;;;;;;4.20;3.67;;;;;;;;;;5008636;28;20223;-55
2021/08/12 14:11:21;;;;;;;9.77;3.97;;;;;;;;;;5007371;28;20195;-57
2021/08/12 14:13:46;;;;;;;4.53;3.83;;;;;;;;;;5006967;28;20188;-57
2021/08/12 14:16:11;;;;;;;5.47;3.60;;;;;;;;;;5016134;28;20205;-57
2021/08/12 14:18:42;;;;;;;7.95;3.80;;;;;;;;;;5011196;28;20204;-57
2021/08/12 14:21:07;;;;;;;6.85;3.70;;;;;;;;;;5007993;28;20175;-54
2021/08/12 14:23:32;;;;;;;3.92;3.50;;;;;;;;;;5010498;23;20245;-79
2021/08/12 14:25:57;;;;;;;3.65;3.35;;;;;;;;;;5025090;28;20186;-81
2021/08/12 14:28:23;;;;;;;3.83;3.43;;;;;;;;;;4997285;28;20261;-79
2021/08/12 14:30:48;;;;;;;4.00;3.40;;;;;;;;;;5008968;28;20274;-80
2021/08/12 14:33:13;;;;;;;4.25;3.47;;;;;;;;;;5013096;28;20430;-79
2021/08/12 14:35:38;;;;;;;3.53;3.23;;;;;;;;;;5010176;28;20195;-79
2021/08/12 14:38:03;;;;;;;3.67;3.37;;;;;;;;;;4992269;28;20452;-80
2021/08/12 14:40:31;;;;;;;4.23;3.57;;;;;;;;;;5001590;28;20997;-80